Time;durP1;ratioP1;P1;durP2;ratioP2;P2;SDS_P1;SDS_P2;PMS_P1;PMS_P2;Temp;Humidity;BMP_temperature;BMP_pressure;BME280_temperature;BME280_humidity;BME280_pressure;Samples;Min_cycle;Max_cycle;Signal;HPM_P1;HPM_P2
2021/12/09 00:01:50;;;;;;;6.37;2.80;;;4.50;99.90;;;4.87;70.34;96260.81;5089640;28;20044;-38
2021/12/09 00:04:27;;;;;;;5.97;3.87;;;4.50;99.90;;;4.86;70.69;96259.16;5107880;28;20058;-38
2021/12/09 00:06:56;;;;;;;5.43;2.50;;;4.50;99.90;;;4.85;70.75;96265.41;5106333;28;20070;-38
2021/12/09 00:09:24;;;;;;;6.00;3.20;;;4.50;99.90;;;4.86;70.88;96267.88;5108430;28;20521;-38
2021/12/09 00:11:52;;;;;;;7.60;2.50;;;4.50;99.90;;;4.87;70.71;96260.81;5107107;28;20058;-38
2021/12/09 00:14:24;;;;;;;5.40;2.70;;;4.50;99.90;;;4.89;70.24;96266.75;5106568;28;20051;-38
2021/12/09 00:16:58;;;;;;;8.23;2.50;;;4.50;99.90;;;4.83;70.79;96264.75;5108709;28;20048;-38
2021/12/09 00:19:27;;;;;;;9.53;3.67;;;4.40;99.90;;;4.78;70.99;96265.22;5107817;28;20047;-38
2021/12/09 00:21:56;;;;;;;5.50;3.00;;;4.40;99.90;;;4.81;70.73;96269.34;5105835;28;20069;-38
2021/12/09 00:24:25;;;;;;;3.63;2.53;;;4.40;99.90;;;4.78;70.30;96264.38;5107433;28;20274;-38
2021/12/09 00:26:53;;;;;;;10.20;3.00;;;4.40;99.90;;;4.78;70.70;96269.66;5108111;28;20035;-38
2021/12/09 00:29:21;;;;;;;8.80;4.47;;;4.40;99.90;;;4.78;70.08;96264.38;5108517;28;20040;-38
2021/12/09 00:31:49;;;;;;;8.23;3.70;;;4.40;99.90;;;4.80;70.63;96265.88;5106735;28;20042;-38
2021/12/09 00:34:20;;;;;;;8.60;4.40;;;4.50;99.90;;;4.79;70.59;96271.31;5107066;28;20071;-38
2021/12/09 00:36:58;;;;;;;7.87;4.13;;;4.50;99.90;;;4.82;70.96;96276.28;5106309;28;20083;-38
2021/12/09 00:39:26;;;;;;;8.67;3.90;;;4.50;99.90;;;4.80;70.77;96273.78;5106261;28;20051;-38
2021/12/09 00:41:54;;;;;;;8.23;3.93;;;4.50;99.90;;;4.81;70.70;96275.44;5106444;28;20073;-38
2021/12/09 00:44:22;;;;;;;13.67;5.13;;;4.50;99.90;;;4.82;70.59;96276.28;5107472;28;20073;-38
2021/12/09 00:46:50;;;;;;;7.10;5.30;;;4.50;99.90;;;4.83;70.79;96272.66;5107625;28;20036;-38
2021/12/09 00:49:18;;;;;;;8.30;5.27;;;4.50;99.90;;;4.82;70.61;96274.44;5106531;28;20618;-38
2021/12/09 00:51:46;;;;;;;8.20;5.07;;;4.50;99.90;;;4.82;70.89;96278.91;5107847;28;20249;-38
2021/12/09 00:54:13;;;;;;;16.10;6.80;;;4.50;99.90;;;4.72;71.20;96279.84;5106980;28;20484;-38
2021/12/09 00:56:41;;;;;;;11.87;6.50;;;4.40;99.90;;;4.71;70.87;96280.00;5106902;28;20364;-38
2021/12/09 00:59:09;;;;;;;10.60;6.20;;;4.30;99.90;;;4.70;71.10;96276.53;5106461;28;20044;-38
2021/12/09 01:01:37;;;;;;;13.87;6.07;;;4.30;99.90;;;4.72;71.00;96284.31;5106023;28;20054;-38
2021/12/09 01:04:05;;;;;;;11.53;6.00;;;4.40;99.90;;;4.73;71.54;96280.69;5106820;28;20043;-38
2021/12/09 01:06:33;;;;;;;9.40;6.20;;;4.40;99.90;;;4.74;71.52;96275.25;5105453;28;20044;-38
2021/12/09 01:09:02;;;;;;;10.67;5.80;;;4.40;99.90;;;4.70;70.84;96289.72;5109186;28;20047;-38
2021/12/09 01:11:30;;;;;;;13.40;6.97;;;4.40;99.90;;;4.61;71.84;96282.75;5109808;28;20063;-38
2021/12/09 01:13:58;;;;;;;13.57;6.03;;;4.30;99.90;;;4.65;70.94;96299.94;5110472;28;20058;-38
2021/12/09 01:16:26;;;;;;;12.37;6.03;;;4.30;99.90;;;4.67;71.59;96297.97;5111016;28;20043;-38
2021/12/09 01:18:55;;;;;;;9.80;5.67;;;4.30;99.90;;;4.68;71.00;96304.88;5111889;28;20253;-38
2021/12/09 01:21:23;;;;;;;10.93;5.73;;;4.30;99.90;;;4.68;71.04;96302.25;5111140;28;20268;-38
2021/12/09 01:23:51;;;;;;;12.90;5.83;;;4.40;99.90;;;4.61;71.83;96303.84;5109833;28;20056;-38
2021/12/09 01:26:19;;;;;;;10.37;4.93;;;4.30;99.90;;;4.66;71.21;96298.13;5112173;28;20055;-38
2021/12/09 01:28:57;;;;;;;8.63;4.53;;;4.30;99.90;;;4.65;71.58;96302.56;5110303;28;20051;-38
2021/12/09 01:31:31;;;;;;;8.93;4.13;;;4.40;99.90;;;4.67;71.63;96302.41;5111079;28;20047;-38
2021/12/09 01:34:02;;;;;;;8.95;5.05;;;4.40;99.90;;;4.59;71.40;96303.19;5107746;28;20183;-38
2021/12/09 01:36:37;;;;;;;7.87;4.30;;;4.30;99.90;;;4.58;71.82;96298.91;5092312;28;20059;-38
2021/12/09 01:39:06;;;;;;;12.47;5.30;;;4.30;99.90;;;4.63;71.26;96304.50;5111506;28;20333;-39
2021/12/09 01:41:34;;;;;;;11.33;5.20;;;4.30;99.90;;;4.65;71.50;96309.63;5111497;28;20040;-38
2021/12/09 01:44:02;;;;;;;11.67;4.87;;;4.40;99.90;;;4.66;71.62;96308.66;5110832;28;20047;-38
2021/12/09 01:46:30;;;;;;;10.47;4.50;;;4.40;99.90;;;4.68;71.20;96317.25;5111633;28;20052;-38
2021/12/09 01:48:58;;;;;;;9.73;4.63;;;4.40;99.90;;;4.61;71.61;96321.47;5111217;28;20056;-39
2021/12/09 01:51:26;;;;;;;9.87;4.90;;;4.40;99.90;;;4.55;71.51;96325.56;5110866;28;20843;-38
2021/12/09 01:53:54;;;;;;;12.70;6.57;;;4.30;99.90;;;4.50;71.40;96323.41;5109024;28;20592;-38
2021/12/09 01:56:26;;;;;;;9.73;5.20;;;4.20;99.90;;;4.48;71.99;96327.19;5108971;28;20490;-38
2021/12/09 01:59:04;;;;;;;11.13;5.13;;;4.10;99.90;;;4.50;71.85;96326.03;5110103;28;20093;-38
2021/12/09 02:01:34;;;;;;;7.97;5.20;;;4.20;99.90;;;4.48;71.49;96319.28;5110816;28;20043;-38
2021/12/09 02:04:07;;;;;;;9.93;4.30;;;4.10;99.90;;;4.40;71.81;96327.97;5111318;28;20061;-38
2021/12/09 02:06:40;;;;;;;11.30;4.63;;;4.10;99.90;;;4.32;72.08;96326.09;5109863;28;20048;-38
2021/12/09 02:09:11;;;;;;;11.07;5.80;;;4.10;99.90;;;4.25;72.30;96316.34;5111629;28;20386;-38
2021/12/09 02:11:40;;;;;;;10.87;5.27;;;4.00;99.90;;;4.17;72.15;96313.63;5111448;28;20241;-38
2021/12/09 02:14:09;;;;;;;11.30;4.90;;;3.90;99.90;;;4.17;71.98;96317.09;5109819;28;20067;-38
2021/12/09 02:16:37;;;;;;;8.80;4.57;;;3.90;99.90;;;4.12;72.97;96320.19;5110036;28;20163;-38
2021/12/09 02:19:08;;;;;;;11.07;4.27;;;3.90;99.90;;;4.15;72.44;96334.88;5110428;28;20048;-38
2021/12/09 02:21:36;;;;;;;10.63;4.63;;;3.90;99.90;;;4.09;73.03;96335.44;5110309;28;20515;-38
2021/12/09 02:24:13;;;;;;;12.40;5.40;;;3.80;99.90;;;4.07;72.84;96343.53;5109484;28;20414;-38
2021/12/09 02:26:46;;;;;;;10.50;4.33;;;3.80;99.90;;;4.00;73.10;96345.09;5108859;28;20047;-38
2021/12/09 02:29:15;;;;;;;14.13;4.83;;;3.80;99.90;;;4.01;73.12;96356.47;5108093;28;20054;-38
2021/12/09 02:31:45;;;;;;;6.30;4.23;;;3.80;99.90;;;4.04;72.38;96364.91;5110088;28;20043;-38
2021/12/09 02:34:13;;;;;;;10.70;5.03;;;3.90;99.90;;;4.10;72.93;96374.00;5107431;28;20075;-38
2021/12/09 02:36:42;;;;;;;7.07;3.93;;;3.90;99.90;;;4.10;72.59;96377.44;5108392;28;20342;-38
2021/12/09 02:39:14;;;;;;;9.27;4.47;;;3.90;99.90;;;4.13;72.17;96371.88;5109895;28;20289;-38
2021/12/09 02:41:43;;;;;;;9.20;4.40;;;4.00;99.90;;;4.20;72.54;96372.09;5108132;28;20051;-38
2021/12/09 02:44:17;;;;;;;6.90;3.30;;;4.00;99.90;;;4.09;72.33;96381.06;5108814;28;20065;-38
2021/12/09 02:46:52;;;;;;;9.02;4.47;;;3.90;99.90;;;4.11;72.78;96380.91;5109438;28;20249;-38
2021/12/09 02:49:26;;;;;;;10.57;4.23;;;3.90;99.90;;;4.10;72.74;96382.72;5091164;28;20380;-38
2021/12/09 02:51:56;;;;;;;9.88;4.03;;;3.90;99.90;;;4.12;72.63;96391.28;5109374;28;20066;-37
2021/12/09 02:54:25;;;;;;;8.17;4.47;;;3.90;99.90;;;4.17;72.52;96388.22;5109339;28;20261;-38
2021/12/09 02:57:01;;;;;;;7.93;4.07;;;3.90;99.90;;;4.12;72.79;96382.56;5108387;28;20052;-38
2021/12/09 02:59:30;;;;;;;7.63;4.03;;;3.90;99.90;;;4.09;72.42;96385.50;5108527;28;20346;-37
2021/12/09 03:02:00;;;;;;;9.10;3.90;;;3.90;99.90;;;4.07;72.15;96383.03;5108981;28;20050;-38
2021/12/09 03:04:50;;;;;;;9.50;4.17;;;3.80;99.90;;;3.99;73.09;96380.31;5109563;28;20054;-38
2021/12/09 03:07:29;;;;;;;12.17;4.20;;;3.80;99.90;;;4.04;72.30;96382.50;5107551;28;20067;-38
2021/12/09 03:10:17;;;;;;;8.73;4.53;;;3.80;99.90;;;3.99;72.59;96382.13;5108986;28;20048;-38
2021/12/09 03:12:48;;;;;;;8.33;4.10;;;3.70;99.90;;;4.00;72.52;96371.44;5109694;28;20341;-38
2021/12/09 03:15:17;;;;;;;12.10;4.07;;;3.80;99.90;;;4.02;72.61;96379.19;5107452;28;20063;-38
2021/12/09 03:17:47;;;;;;;10.40;4.13;;;3.80;99.90;;;3.97;73.14;96369.09;5109645;28;20044;-38
2021/12/09 03:20:18;;;;;;;10.87;4.63;;;3.70;99.90;;;4.00;72.37;96378.53;5107939;28;20065;-37
2021/12/09 03:22:48;;;;;;;8.80;3.47;;;3.70;99.90;;;3.99;72.84;96377.66;5109027;28;20082;-38
2021/12/09 03:25:19;;;;;;;8.17;3.50;;;3.80;99.90;;;3.98;72.19;96376.03;5109093;28;20060;-38
2021/12/09 03:27:49;;;;;;;12.00;4.10;;;3.80;99.90;;;3.97;73.24;96366.47;5106305;28;20052;-38
2021/12/09 03:30:19;;;;;;;7.50;3.93;;;3.80;99.90;;;3.94;72.63;96380.78;5108222;28;20048;-38
2021/12/09 03:32:47;;;;;;;9.87;3.73;;;3.70;99.90;;;4.00;72.44;96378.53;5107337;28;20062;-38
2021/12/09 03:35:15;;;;;;;10.90;4.10;;;3.70;99.90;;;3.96;72.81;96377.19;5108069;28;20058;-38
2021/12/09 03:37:45;;;;;;;14.17;5.20;;;3.70;99.90;;;4.01;71.96;96380.16;5107553;28;20071;-38
2021/12/09 03:40:14;;;;;;;11.77;4.90;;;3.80;99.90;;;4.00;72.35;96381.97;5106892;28;20082;-38
2021/12/09 03:42:43;;;;;;;8.47;4.00;;;3.80;99.90;;;4.01;72.34;96388.88;5105930;28;20372;-38
2021/12/09 03:45:14;;;;;;;8.17;4.63;;;3.80;99.90;;;4.00;72.81;96386.44;5108472;28;20050;-38
2021/12/09 03:47:43;;;;;;;8.13;3.87;;;3.80;99.90;;;3.91;72.79;96378.44;5108658;28;20074;-38
2021/12/09 03:50:13;;;;;;;12.50;4.30;;;3.70;99.90;;;3.98;71.90;96388.38;5090051;28;20039;-38
2021/12/09 03:52:41;;;;;;;9.63;4.60;;;3.70;99.90;;;3.99;72.57;96387.38;5107507;28;20073;-38
2021/12/09 03:55:10;;;;;;;10.40;4.17;;;3.70;99.90;;;3.94;72.05;96385.22;5108254;28;20054;-38
2021/12/09 03:57:38;;;;;;;8.20;4.00;;;3.70;99.90;;;3.98;72.30;96377.84;5107467;28;20057;-38
2021/12/09 04:00:08;;;;;;;7.40;4.00;;;3.70;99.90;;;4.04;72.41;96383.31;5107072;28;20472;-38
2021/12/09 04:02:37;;;;;;;6.03;3.37;;;3.80;99.90;;;4.05;71.74;96386.78;5107513;28;20346;-38
2021/12/09 04:05:07;;;;;;;7.83;4.10;;;3.80;99.90;;;4.00;72.32;96381.97;5106239;28;20376;-38
2021/12/09 04:07:35;;;;;;;10.13;5.13;;;3.70;99.90;;;3.93;71.58;96391.44;5107508;28;20227;-38
2021/12/09 04:10:06;;;;;;;8.20;3.43;;;3.60;99.90;;;3.84;72.23;96387.94;5108806;28;20105;-38
2021/12/09 04:12:34;;;;;;;7.40;3.80;;;3.50;99.90;;;3.86;71.72;96393.06;5107699;28;20055;-38
2021/12/09 04:15:03;;;;;;;9.17;3.73;;;3.50;99.90;;;3.79;71.59;96400.69;5108827;28;20474;-38
2021/12/09 04:17:31;;;;;;;11.20;4.00;;;3.50;99.90;;;3.81;72.03;96398.75;5107900;28;20049;-38
2021/12/09 04:19:59;;;;;;;9.47;4.23;;;3.60;99.90;;;3.77;71.84;96397.41;5107683;28;20055;-38
2021/12/09 04:22:26;;;;;;;6.90;4.10;;;3.50;99.90;;;3.74;71.76;96401.16;5108266;28;20368;-38
2021/12/09 04:24:55;;;;;;;8.80;4.97;;;3.50;99.90;;;3.81;71.90;96397.94;5107867;28;20039;-38
2021/12/09 04:27:23;;;;;;;10.90;3.67;;;3.50;99.90;;;3.82;71.54;96394.31;5107672;28;20346;-38
2021/12/09 04:29:52;;;;;;;6.93;3.67;;;3.50;99.90;;;3.82;71.17;96402.19;5107500;28;20048;-38
2021/12/09 04:32:20;;;;;;;9.07;4.50;;;3.50;99.90;;;3.85;71.43;96399.28;5108153;28;20253;-38
2021/12/09 04:34:53;;;;;;;10.33;4.00;;;3.60;99.90;;;3.80;71.68;96404.16;5105735;28;20052;-38
2021/12/09 04:37:21;;;;;;;8.43;2.97;;;3.50;99.90;;;3.79;71.77;96408.59;5107671;28;20040;-38
2021/12/09 04:39:49;;;;;;;6.83;3.17;;;3.50;99.90;;;3.83;71.29;96401.22;5107020;28;20332;-38
2021/12/09 04:42:17;;;;;;;4.70;3.30;;;3.50;99.90;;;3.77;71.44;96399.19;5104733;28;20043;-38
2021/12/09 04:44:44;;;;;;;7.07;3.37;;;3.50;99.90;;;3.79;71.58;96407.78;5106956;28;20052;-38
2021/12/09 04:47:12;;;;;;;6.60;3.03;;;3.50;99.90;;;3.77;71.29;96407.09;5107805;28;20055;-38
2021/12/09 04:49:40;;;;;;;11.67;3.37;;;3.50;99.90;;;3.78;70.94;96416.63;5106736;28;20383;-38
2021/12/09 04:52:08;;;;;;;8.27;2.83;;;3.50;99.90;;;3.82;71.24;96400.41;5107127;28;20055;-38
2021/12/09 04:54:36;;;;;;;12.10;3.67;;;3.60;99.90;;;3.90;71.97;96408.38;5107103;28;20121;-38
2021/12/09 04:57:05;;;;;;;11.47;3.13;;;3.60;99.90;;;3.97;71.51;96415.69;5105492;28;20349;-38
2021/12/09 04:59:33;;;;;;;4.63;2.40;;;3.70;99.90;;;3.97;71.42;96426.22;5107452;28;20057;-38
2021/12/09 05:02:02;;;;;;;5.33;2.90;;;3.60;99.90;;;3.93;71.15;96433.59;5105761;28;20052;-38
2021/12/09 05:04:30;;;;;;;6.93;2.60;;;3.60;99.90;;;3.92;70.06;96438.03;5108205;28;20583;-38
2021/12/09 05:06:58;;;;;;;10.03;3.03;;;3.60;99.90;;;3.94;70.94;96445.78;5105446;28;20058;-38
2021/12/09 05:09:26;;;;;;;5.17;2.53;;;3.60;99.90;;;3.96;70.93;96449.09;5106778;28;20272;-38
2021/12/09 05:11:54;;;;;;;9.10;3.17;;;3.70;99.90;;;4.00;70.91;96458.34;5107252;28;20089;-38
2021/12/09 05:14:23;;;;;;;7.50;3.03;;;3.60;99.90;;;4.03;70.23;96468.59;5106172;28;20073;-38
2021/12/09 05:16:53;;;;;;;5.80;2.70;;;3.70;99.90;;;4.03;71.09;96465.97;5107017;28;20073;-38
2021/12/09 05:19:22;;;;;;;5.63;2.73;;;3.70;99.90;;;4.02;71.02;96471.38;5107386;28;20046;-38
2021/12/09 05:21:53;;;;;;;6.50;3.33;;;3.70;99.90;;;4.04;70.51;96480.78;5107261;28;20070;-38
2021/12/09 05:24:21;;;;;;;6.90;3.40;;;3.70;99.90;;;4.02;70.39;96476.66;5107263;28;20051;-38
2021/12/09 05:26:52;;;;;;;9.30;4.57;;;3.70;99.90;;;3.99;70.75;96469.84;5106392;28;20051;-38
2021/12/09 05:29:28;;;;;;;6.77;2.77;;;3.70;99.90;;;3.95;70.25;96473.75;5107696;28;20047;-38
2021/12/09 05:32:08;;;;;;;5.67;2.83;;;3.70;99.90;;;3.99;70.73;96480.38;5105822;28;20346;-38
2021/12/09 05:34:45;;;;;;;6.80;2.90;;;3.70;99.90;;;3.96;70.40;96493.03;5107054;28;20437;-38
2021/12/09 05:37:17;;;;;;;4.87;2.93;;;3.70;99.90;;;3.89;69.99;96498.88;5107147;28;20050;-38
2021/12/09 05:39:47;;;;;;;6.00;2.60;;;3.60;99.90;;;3.83;70.31;96504.72;5106793;28;20043;-38
2021/12/09 05:42:17;;;;;;;7.57;3.03;;;3.50;99.90;;;3.86;70.64;96509.72;5106061;28;20043;-38
2021/12/09 05:44:46;;;;;;;6.67;3.07;;;3.50;99.90;;;3.88;70.53;96502.50;5106661;28;20050;-39
2021/12/09 05:47:14;;;;;;;8.80;3.33;;;3.60;99.90;;;3.92;70.74;96505.69;5088535;28;20048;-38
2021/12/09 05:49:46;;;;;;;9.03;2.80;;;3.60;99.90;;;3.94;70.72;96506.34;5107890;28;20062;-38
2021/12/09 05:52:15;;;;;;;7.73;3.37;;;3.60;99.90;;;3.97;70.40;96505.22;5106537;28;20060;-38
2021/12/09 05:54:44;;;;;;;7.90;3.03;;;3.70;99.90;;;3.96;70.80;96514.13;5091627;28;20047;-38
2021/12/09 05:57:12;;;;;;;5.90;2.80;;;3.70;99.90;;;3.93;70.33;96505.50;5109836;28;20342;-38
2021/12/09 05:59:41;;;;;;;5.53;3.63;;;3.70;99.90;;;3.87;70.07;96513.19;5112023;28;20340;-38
2021/12/09 06:02:16;;;;;;;4.43;3.40;;;3.60;99.90;;;3.89;70.85;96519.94;5109741;28;20369;-38
2021/12/09 06:04:44;;;;;;;5.87;3.30;;;3.60;99.90;;;3.93;70.26;96516.03;5109580;28;20055;-38
2021/12/09 06:07:14;;;;;;;6.10;2.93;;;3.70;99.90;;;3.97;70.12;96527.09;5109892;28;20051;-38
2021/12/09 06:09:42;;;;;;;6.07;2.77;;;3.70;99.90;;;4.00;70.19;96534.72;5110654;28;20356;-38
2021/12/09 06:12:10;;;;;;;5.40;3.13;;;3.70;99.90;;;4.03;70.09;96525.69;5110646;28;20047;-38
2021/12/09 06:14:40;;;;;;;6.50;3.00;;;3.70;99.90;;;4.04;70.45;96525.56;5110377;28;20062;-38
2021/12/09 06:17:08;;;;;;;4.83;3.27;;;3.80;99.90;;;4.05;70.19;96526.38;5110277;28;20051;-39
2021/12/09 06:19:36;;;;;;;7.80;3.00;;;3.80;99.90;;;4.05;70.13;96518.47;5108301;28;20561;-38
2021/12/09 06:22:04;;;;;;;7.10;3.47;;;3.80;99.90;;;4.02;69.85;96519.59;5110193;28;20338;-38
2021/12/09 06:24:31;;;;;;;6.20;3.30;;;3.80;99.90;;;4.04;69.72;96522.09;5108871;28;20056;-38
2021/12/09 06:26:59;;;;;;;6.97;4.20;;;3.80;99.90;;;4.05;70.55;96521.94;5109382;28;20360;-39
2021/12/09 06:29:27;;;;;;;5.57;3.60;;;3.90;99.90;;;4.09;70.32;96519.81;5110186;28;20047;-38
2021/12/09 06:31:55;;;;;;;4.83;3.07;;;3.90;99.90;;;4.11;70.07;96520.50;5109909;28;20044;-39
2021/12/09 06:34:23;;;;;;;6.33;3.33;;;3.90;99.90;;;4.13;70.27;96521.22;5108800;28;20048;-38
2021/12/09 06:36:51;;;;;;;7.10;3.77;;;3.90;99.90;;;4.15;70.57;96521.91;5110033;28;20055;-38
2021/12/09 06:39:19;;;;;;;7.13;4.17;;;3.90;99.90;;;4.17;69.45;96517.31;5109784;28;20051;-39
2021/12/09 06:41:47;;;;;;;7.00;3.00;;;3.90;99.90;;;4.17;69.73;96522.56;5109720;28;20245;-39
2021/12/09 06:44:14;;;;;;;4.83;2.80;;;3.90;99.90;;;4.16;69.64;96514.81;5109105;28;20346;-38
2021/12/09 06:46:42;;;;;;;6.03;2.67;;;3.90;99.90;;;4.12;70.16;96527.44;5092129;28;20039;-39
2021/12/09 06:49:10;;;;;;;8.30;2.93;;;3.90;99.90;;;4.13;70.22;96523.84;5110548;28;20047;-39
2021/12/09 06:51:39;;;;;;;7.97;2.40;;;3.90;99.90;;;4.13;69.86;96527.31;5109464;28;20044;-39
2021/12/09 06:54:06;;;;;;;7.47;2.40;;;3.90;99.90;;;4.17;69.42;96529.63;5108860;28;20353;-38
2021/12/09 06:56:35;;;;;;;7.77;4.37;;;3.90;99.90;;;4.18;69.72;96524.22;5109451;28;20066;-38
2021/12/09 06:59:03;;;;;;;5.53;3.73;;;4.00;99.90;;;4.19;69.67;96520.63;5108878;28;20051;-38
2021/12/09 07:01:38;;;;;;;6.93;3.20;;;4.00;99.90;;;4.21;69.82;96526.56;5109876;28;20056;-39
2021/12/09 07:04:08;;;;;;;7.03;3.30;;;4.00;99.90;;;4.17;69.14;96529.63;5108049;28;20265;-39
2021/12/09 07:06:38;;;;;;;8.97;3.27;;;3.90;99.90;;;4.12;69.59;96533.53;5108493;28;20047;-39
2021/12/09 07:09:07;;;;;;;6.53;3.07;;;3.80;99.90;;;4.10;69.44;96526.78;5110729;28;20744;-39
2021/12/09 07:11:44;;;;;;;8.32;3.92;;;3.80;99.90;;;4.13;69.36;96526.47;5109761;28;20043;-39
2021/12/09 07:14:12;;;;;;;11.00;4.07;;;3.90;99.90;;;4.16;69.99;96527.97;5108981;28;20273;-39
2021/12/09 07:16:40;;;;;;;7.40;3.53;;;3.90;99.90;;;4.06;69.65;96520.13;5107416;28;20059;-39
2021/12/09 07:19:08;;;;;;;5.60;4.10;;;3.80;99.90;;;4.05;69.97;96514.06;5109730;28;20059;-39
2021/12/09 07:21:36;;;;;;;6.57;3.60;;;3.80;99.90;;;4.07;69.37;96524.41;5108607;28;20374;-39
2021/12/09 07:24:04;;;;;;;9.63;3.70;;;3.80;99.90;;;4.00;69.68;96518.94;5107597;28;20054;-39
2021/12/09 07:26:32;;;;;;;9.17;3.67;;;3.70;99.90;;;3.98;69.96;96530.59;5108918;28;20055;-39
2021/12/09 07:29:00;;;;;;;8.53;3.33;;;3.70;99.90;;;3.98;69.87;96527.97;5107010;28;20069;-39
2021/12/09 07:31:28;;;;;;;8.13;3.83;;;3.70;99.90;;;4.00;69.69;96539.19;5109389;28;20048;-39
2021/12/09 07:33:57;;;;;;;9.03;3.57;;;3.70;99.90;;;3.97;69.70;96547.34;5090006;28;20056;-39
2021/12/09 07:36:25;;;;;;;5.43;3.50;;;3.70;99.90;;;3.95;69.92;96544.88;5104811;28;20358;-39
2021/12/09 07:38:53;;;;;;;6.40;3.70;;;3.70;99.90;;;3.92;70.21;96548.63;5108079;28;20342;-39
2021/12/09 07:41:21;;;;;;;5.57;3.53;;;3.70;99.90;;;3.99;69.66;96558.56;5108631;28;20051;-39
2021/12/09 07:43:50;;;;;;;6.80;4.00;;;3.70;99.90;;;3.93;69.87;96559.97;5107526;28;20039;-39
2021/12/09 07:46:17;;;;;;;6.10;4.20;;;3.70;99.90;;;3.90;69.68;96557.66;5108522;28;20049;-39
2021/12/09 07:48:46;;;;;;;7.97;4.53;;;3.60;99.90;;;3.89;70.10;96558.63;5107480;28;20049;-39
2021/12/09 07:51:13;;;;;;;7.97;4.23;;;3.60;99.90;;;3.98;69.28;96562.19;5109184;28;20054;-39
2021/12/09 07:53:41;;;;;;;6.93;4.40;;;3.70;99.90;;;4.03;69.83;96567.84;5109184;28;20047;-39
2021/12/09 07:56:09;;;;;;;7.97;4.90;;;3.80;99.90;;;4.06;69.81;96562.28;5105237;28;20051;-39
2021/12/09 07:58:37;;;;;;;7.93;3.90;;;3.80;99.90;;;4.04;70.51;96577.41;5106788;28;20057;-39
2021/12/09 08:01:06;;;;;;;7.00;4.17;;;3.70;99.90;;;4.02;70.01;96574.09;5108630;28;20067;-39
2021/12/09 08:03:34;;;;;;;7.50;4.50;;;3.70;99.90;;;4.03;70.21;96568.69;5106740;28;20060;-40
2021/12/09 08:06:02;;;;;;;7.27;4.90;;;3.70;99.90;;;4.04;70.58;96572.13;5108768;28;20322;-40
2021/12/09 08:08:30;;;;;;;7.97;4.77;;;3.80;99.90;;;4.11;69.92;96568.78;5105825;28;20059;-40
2021/12/09 08:10:58;;;;;;;7.67;4.30;;;3.90;99.90;;;4.17;70.18;96564.72;5106967;28;20044;-40
2021/12/09 08:13:27;;;;;;;8.43;4.60;;;3.90;99.90;;;4.22;69.80;96554.56;5106503;28;20062;-40
2021/12/09 08:15:55;;;;;;;6.97;4.70;;;4.00;99.90;;;4.26;70.74;96569.09;5107215;28;20053;-39
2021/12/09 08:18:33;;;;;;;8.53;5.13;;;4.10;99.90;;;4.22;69.71;96565.09;5107410;28;20051;-39
2021/12/09 08:21:02;;;;;;;10.37;5.43;;;4.00;99.90;;;4.25;70.10;96570.06;5108690;28;20043;-39
2021/12/09 08:23:30;;;;;;;7.10;5.03;;;4.00;99.90;;;4.23;69.82;96565.94;5107411;28;20047;-39
2021/12/09 08:25:58;;;;;;;9.30;5.10;;;4.00;99.90;;;4.18;70.20;96565.53;5107077;28;20044;-39
2021/12/09 08:28:26;;;;;;;6.90;4.50;;;3.90;99.90;;;4.09;70.61;96572.50;5107787;28;20350;-38
2021/12/09 08:30:54;;;;;;;10.63;4.63;;;3.80;99.90;;;4.05;70.09;96571.16;5108088;28;20058;-38
2021/12/09 08:33:25;;;;;;;7.90;4.10;;;3.80;99.90;;;4.07;69.78;96587.63;5107082;28;20048;-38
2021/12/09 08:35:54;;;;;;;7.97;4.90;;;3.80;99.90;;;4.08;70.22;96587.50;5107509;28;20047;-38
2021/12/09 08:38:24;;;;;;;9.87;6.03;;;3.80;99.90;;;4.04;69.96;96595.84;5107880;28;20047;-38
2021/12/09 08:40:53;;;;;;;8.80;5.23;;;3.80;99.90;;;4.04;70.37;96598.47;5107102;28;20056;-38
2021/12/09 08:43:22;;;;;;;11.43;5.33;;;3.80;99.90;;;4.07;70.70;96596.38;5106445;28;20334;-38
2021/12/09 08:45:53;;;;;;;8.70;5.80;;;3.90;99.90;;;4.12;71.21;96601.19;5107194;28;20047;-38
2021/12/09 08:48:23;;;;;;;8.20;6.03;;;4.00;99.90;;;4.12;70.84;96602.03;5105999;28;20051;-38
2021/12/09 08:50:53;;;;;;;11.10;5.93;;;3.90;99.90;;;4.16;71.17;96599.09;5106429;28;20047;-38
2021/12/09 08:53:25;;;;;;;11.03;6.60;;;3.90;99.90;;;4.23;70.39;96601.00;5106176;28;20050;-38
2021/12/09 08:55:54;;;;;;;12.27;5.40;;;4.00;99.90;;;4.30;70.37;96606.50;5107794;28;20360;-38
2021/12/09 08:58:23;;;;;;;8.73;6.30;;;4.10;99.90;;;4.31;71.15;96606.38;5106211;28;20055;-38
2021/12/09 09:00:53;;;;;;;9.23;5.37;;;4.20;99.90;;;4.31;70.75;96610.81;5105292;28;20040;-38
2021/12/09 09:03:22;;;;;;;9.93;5.93;;;4.20;99.90;;;4.32;70.36;96610.69;5104527;28;20055;-38
2021/12/09 09:05:51;;;;;;;10.57;5.33;;;4.10;99.90;;;4.33;70.90;96607.03;5105268;28;20266;-38
2021/12/09 09:08:19;;;;;;;11.13;6.57;;;4.10;99.90;;;4.42;71.17;96615.03;5105912;28;20045;-38
2021/12/09 09:10:49;;;;;;;12.03;5.77;;;4.20;99.90;;;4.46;70.51;96611.97;5105700;28;20349;-39
2021/12/09 09:13:17;;;;;;;10.53;6.53;;;4.30;99.90;;;4.42;70.46;96618.53;5111802;28;20047;-38
2021/12/09 09:15:48;;;;;;;9.13;6.30;;;4.20;99.90;;;4.47;70.81;96626.78;5121921;28;20048;-38
2021/12/09 09:18:18;;;;;;;11.50;6.47;;;4.30;99.90;;;4.43;70.32;96624.63;5121435;28;20367;-38
2021/12/09 09:20:48;;;;;;;12.43;5.83;;;4.20;99.90;;;4.38;71.18;96619.81;5122256;28;20051;-38
2021/12/09 09:23:20;;;;;;;11.80;6.17;;;4.20;99.90;;;4.43;71.22;96629.88;5122732;28;20050;-38
2021/12/09 09:25:49;;;;;;;8.40;6.20;;;4.20;99.90;;;4.33;70.46;96635.22;5121908;28;20207;-38
2021/12/09 09:28:18;;;;;;;10.50;5.60;;;4.20;99.90;;;4.44;71.13;96635.03;5123010;28;20325;-38
2021/12/09 09:30:53;;;;;;;7.43;5.30;;;4.30;99.90;;;4.52;70.74;96637.72;5125798;28;20044;-38
2021/12/09 09:33:29;;;;;;;7.97;5.77;;;4.30;99.90;;;4.52;70.53;96632.47;5126015;28;20054;-38
2021/12/09 09:35:57;;;;;;;8.20;6.00;;;4.30;99.90;;;4.56;70.48;96638.28;5126321;28;20249;-38
2021/12/09 09:38:27;;;;;;;11.13;6.63;;;4.40;99.90;;;4.59;71.21;96637.13;5126568;28;20051;-38
2021/12/09 09:41:08;;;;;;;13.03;6.87;;;4.40;99.90;;;4.60;71.13;96646.72;5125983;28;20057;-38
2021/12/09 09:46:23;;;;;;;8.83;6.50;;;4.50;99.90;;;4.60;70.48;96644.91;5126184;28;20222;-38
2021/12/09 09:48:53;;;;;;;8.20;5.43;;;4.40;99.90;;;4.63;70.41;96651.69;5121825;28;20052;-38
2021/12/09 09:51:24;;;;;;;9.10;5.30;;;4.40;99.90;;;4.65;70.98;96650.56;5125737;28;20083;-38
2021/12/09 09:53:53;;;;;;;9.10;6.27;;;4.50;99.90;;;4.62;70.68;96650.03;5126122;28;20050;-38
2021/12/09 09:56:23;;;;;;;13.13;6.90;;;4.50;99.90;;;4.59;70.97;96659.03;5125448;28;20058;-38
2021/12/09 09:59:00;;;;;;;9.57;6.40;;;4.40;99.90;;;4.65;70.74;96657.63;5125605;28;20380;-38
2021/12/09 10:01:30;;;;;;;12.97;8.27;;;4.50;99.90;;;4.73;70.83;96660.38;5125608;28;20058;-38
2021/12/09 10:04:10;;;;;;;10.33;6.60;;;4.60;99.90;;;4.71;71.11;96662.31;5125734;28;20054;-38
2021/12/09 10:06:42;;;;;;;21.43;7.47;;;4.60;99.90;;;4.67;70.94;96664.44;5125843;28;20050;-38
2021/12/09 10:09:12;;;;;;;10.53;6.50;;;4.60;99.90;;;4.72;70.54;96671.88;5125314;28;20054;-38
2021/12/09 10:11:41;;;;;;;10.10;6.93;;;4.60;99.90;;;4.62;70.95;96665.84;5125048;28;20040;-38
2021/12/09 10:14:20;;;;;;;9.60;6.97;;;4.50;99.90;;;4.42;71.03;96662.47;5124477;28;20211;-38
2021/12/09 10:17:08;;;;;;;8.43;5.20;;;4.40;99.90;;;4.32;71.14;96660.75;5107360;28;20061;-38
2021/12/09 10:19:46;;;;;;;9.40;6.80;;;4.20;99.90;;;4.32;70.99;96666.00;5103758;28;20069;-38
2021/12/09 10:22:20;;;;;;;10.80;6.33;;;4.20;99.90;;;4.30;70.90;96665.31;5105137;28;20048;-38
2021/12/09 10:24:53;;;;;;;10.27;6.47;;;4.20;99.90;;;4.31;70.74;96659.06;5105365;28;20046;-38
2021/12/09 10:27:29;;;;;;;15.75;7.15;;;4.20;99.90;;;4.30;71.43;96664.47;5105094;28;20047;-38
2021/12/09 10:30:10;;;;;;;10.87;6.83;;;4.20;99.90;;;4.21;71.26;96657.47;5104596;28;20352;-38
2021/12/09 10:32:39;;;;;;;11.20;8.20;;;4.10;99.90;;;4.20;71.24;96674.25;5105198;28;20047;-38
2021/12/09 10:35:19;;;;;;;15.03;8.73;;;4.10;99.90;;;4.20;71.75;96667.16;5105028;28;20249;-38
2021/12/09 10:37:50;;;;;;;13.03;8.40;;;4.10;99.90;;;4.21;71.66;96670.66;5101564;28;20047;-38
2021/12/09 10:40:22;;;;;;;14.23;8.97;;;4.10;99.90;;;4.12;71.63;96672.31;5104392;28;20051;-38
2021/12/09 10:42:59;;;;;;;12.20;8.67;;;4.10;99.90;;;4.19;71.62;96667.28;5104973;28;20237;-38
2021/12/09 10:45:35;;;;;;;14.50;8.47;;;4.10;99.90;;;4.10;71.52;96661.94;5104856;28;20044;-38